createdAt,value
2018-05-11T00:00:53.762Z,14.63
2018-05-11T00:03:22.126Z,11.20
2018-05-11T00:05:49.734Z,12.47
2018-05-11T00:08:17.306Z,12.63
2018-05-11T00:10:45.663Z,9.50
2018-05-11T00:13:13.270Z,10.27
2018-05-11T00:15:40.882Z,9.67
2018-05-11T00:18:08.425Z,11.90
2018-05-11T00:31:51.042Z,11.57
2018-05-11T00:34:18.568Z,10.67
2018-05-11T00:36:46.887Z,12.73
2018-05-11T00:39:14.414Z,11.97
2018-05-11T00:41:42.716Z,11.23
2018-05-11T00:44:10.243Z,9.20
2018-05-11T00:46:37.756Z,9.23
2018-05-11T00:49:05.285Z,9.73
2018-05-11T00:51:33.625Z,13.30
2018-05-11T00:54:02.027Z,11.70
2018-05-11T00:56:29.605Z,9.33
2018-05-11T00:58:57.221Z,8.53
2018-05-11T01:01:25.561Z,8.67
2018-05-11T01:03:53.162Z,13.70
2018-05-11T01:06:21.583Z,10.60
2018-05-11T01:08:49.243Z,9.87
2018-05-11T01:11:17.551Z,9.23
2018-05-11T01:13:45.151Z,10.87
2018-05-11T01:16:12.718Z,9.60
2018-05-11T01:18:40.325Z,9.23
2018-05-11T01:21:07.911Z,15.00
2018-05-11T01:23:35.463Z,8.13
2018-05-11T01:26:03.097Z,12.30
2018-05-11T01:28:30.682Z,12.83
2018-05-11T01:30:58.245Z,10.23
2018-05-11T01:33:25.873Z,10.43
2018-05-11T01:35:53.473Z,11.63
2018-05-11T01:38:21.033Z,9.60
2018-05-11T01:40:48.617Z,13.57
2018-05-11T01:43:16.238Z,16.10
2018-05-11T01:45:43.823Z,20.93
2018-05-11T01:48:12.166Z,13.97
2018-05-11T01:50:39.729Z,19.20
2018-05-11T01:53:07.334Z,16.50
2018-05-11T01:55:34.978Z,15.53
2018-05-11T01:58:03.327Z,15.63
2018-05-11T02:00:30.887Z,12.20
2018-05-11T02:02:58.542Z,16.70
2018-05-11T02:05:26.108Z,18.30
2018-05-11T02:07:53.736Z,17.80
2018-05-11T02:10:21.360Z,15.83
2018-05-11T02:12:49.716Z,16.00
2018-05-11T02:15:17.296Z,15.20
2018-05-11T02:17:45.613Z,17.20
2018-05-11T02:20:13.194Z,15.53
2018-05-11T02:22:40.806Z,17.80
2018-05-11T02:25:08.401Z,18.60
2018-05-11T02:27:35.971Z,20.50
2018-05-11T02:30:03.564Z,26.33
2018-05-11T02:32:31.203Z,17.43
2018-05-11T02:34:58.783Z,17.30
2018-05-11T02:37:26.400Z,21.30
2018-05-11T02:39:54.020Z,27.70
2018-05-11T02:42:22.374Z,19.30
2018-05-11T02:45:04.178Z,23.77
2018-05-11T02:47:31.790Z,16.63
2018-05-11T02:49:59.357Z,17.20
2018-05-11T02:52:26.961Z,17.47
2018-05-11T02:54:55.312Z,22.43
2018-05-11T02:57:22.941Z,13.87
2018-05-11T02:59:50.502Z,17.57
2018-05-11T03:02:18.828Z,23.60
2018-05-11T03:04:46.446Z,20.20
2018-05-11T03:07:14.033Z,18.43
2018-05-11T03:09:41.682Z,17.83
2018-05-11T03:12:09.321Z,19.83
2018-05-11T03:14:36.929Z,21.93
2018-05-11T03:17:05.281Z,18.15
2018-05-11T03:19:32.839Z,21.70
2018-05-11T03:22:00.491Z,21.30
2018-05-11T03:24:28.127Z,18.60
2018-05-11T03:26:55.704Z,16.03
2018-05-11T03:29:23.265Z,15.03
2018-05-11T03:31:50.865Z,22.25
2018-05-11T03:34:18.433Z,18.00
2018-05-11T03:36:46.809Z,19.67
2018-05-11T03:39:15.164Z,24.75
2018-05-11T03:41:42.773Z,23.58
2018-05-11T03:44:10.366Z,20.10
2018-05-11T03:46:37.929Z,17.40
2018-05-11T03:49:05.531Z,15.07
2018-05-11T03:51:33.154Z,16.17
2018-05-11T03:54:00.791Z,19.30
2018-05-11T03:56:28.356Z,22.00
2018-05-11T03:58:55.923Z,18.30
2018-05-11T04:01:35.200Z,16.50
2018-05-11T04:04:14.753Z,20.60
2018-05-11T04:06:54.737Z,21.20
2018-05-11T04:09:22.374Z,21.30
2018-05-11T04:11:49.969Z,17.95
2018-05-11T04:14:17.537Z,19.35
2018-05-11T04:16:45.129Z,17.45
2018-05-11T04:19:12.766Z,21.48
2018-05-11T04:21:40.406Z,20.83
2018-05-11T04:24:08.036Z,22.33
2018-05-11T04:26:35.672Z,19.25
2018-05-11T04:29:03.301Z,18.83
2018-05-11T04:31:30.936Z,16.15
2018-05-11T04:33:58.537Z,16.57
2018-05-11T04:36:26.102Z,12.23
2018-05-11T04:38:53.697Z,14.70
2018-05-11T04:41:22.031Z,12.80
2018-05-11T04:43:49.603Z,13.93
2018-05-11T04:46:17.225Z,10.40
2018-05-11T04:48:44.807Z,12.50
2018-05-11T04:51:20.084Z,13.53
2018-05-11T04:53:48.457Z,14.70
2018-05-11T04:56:18.069Z,9.00
2018-05-11T04:58:46.401Z,14.20
2018-05-11T05:01:15.054Z,15.60
2018-05-11T05:03:42.690Z,11.20
2018-05-11T05:06:10.242Z,15.23
2018-05-11T05:08:37.873Z,14.23
2018-05-11T05:11:05.450Z,11.40
2018-05-11T05:13:34.024Z,13.50
2018-05-11T05:16:05.546Z,19.57
2018-05-11T05:18:33.106Z,14.37
2018-05-11T05:21:08.633Z,13.20
2018-05-11T05:23:51.139Z,10.53
2018-05-11T05:26:18.717Z,10.67
2018-05-11T05:28:46.257Z,11.90
2018-05-11T05:31:16.517Z,12.43
2018-05-11T05:33:44.164Z,12.27
2018-05-11T05:36:11.728Z,14.20
2018-05-11T05:38:39.324Z,12.83
2018-05-11T05:41:06.933Z,10.00
2018-05-11T05:43:34.530Z,12.00
2018-05-11T05:46:02.099Z,12.27
2018-05-11T05:48:29.670Z,13.73
2018-05-11T05:50:57.311Z,15.00
2018-05-11T05:53:24.883Z,13.93
2018-05-11T05:55:52.408Z,11.27
2018-05-11T05:58:19.965Z,14.47
2018-05-11T06:00:47.514Z,11.57
2018-05-11T06:03:15.049Z,11.43
2018-05-11T06:05:43.568Z,12.23
2018-05-11T06:08:11.215Z,16.43
2018-05-11T06:10:44.018Z,12.50
2018-05-11T06:13:11.558Z,13.90
2018-05-11T06:15:39.228Z,14.80
2018-05-11T06:18:06.799Z,16.90
2018-05-11T06:20:34.397Z,13.67
2018-05-11T06:23:01.979Z,10.93
2018-05-11T06:25:29.552Z,10.80
2018-05-11T06:27:57.149Z,11.07
2018-05-11T06:30:24.803Z,10.73
2018-05-11T06:32:52.347Z,8.00
2018-05-11T06:35:19.954Z,12.37
2018-05-11T06:37:47.564Z,9.10
2018-05-11T06:40:22.986Z,10.67
2018-05-11T06:42:50.564Z,9.63
2018-05-11T06:45:18.185Z,13.63
2018-05-11T06:47:45.819Z,11.47
2018-05-11T06:50:13.490Z,9.47
2018-05-11T06:52:41.087Z,9.30
2018-05-11T06:55:09.425Z,13.10
2018-05-11T06:57:37.059Z,12.10
2018-05-11T07:00:04.663Z,11.10
2018-05-11T07:02:32.232Z,9.30
2018-05-11T07:04:59.773Z,14.00
2018-05-11T07:07:27.380Z,12.80
2018-05-11T07:10:04.676Z,18.03
2018-05-11T07:12:33.029Z,7.90
2018-05-11T07:15:01.376Z,11.63
2018-05-11T07:17:29.030Z,11.40
2018-05-11T07:19:56.655Z,13.13
2018-05-11T07:22:24.269Z,13.53
2018-05-11T07:24:51.863Z,13.50
2018-05-11T07:27:19.477Z,14.53
2018-05-11T07:29:47.048Z,11.60
2018-05-11T07:32:14.662Z,17.40
2018-05-11T07:34:42.263Z,15.90
2018-05-11T07:37:09.810Z,17.47
2018-05-11T07:39:37.431Z,15.67
2018-05-11T07:42:04.994Z,16.80
2018-05-11T07:44:33.413Z,17.53
2018-05-11T07:47:01.017Z,16.53
2018-05-11T07:49:28.588Z,15.97
2018-05-11T07:51:56.143Z,15.30
2018-05-11T07:54:23.732Z,20.77
2018-05-11T07:56:51.335Z,17.20
2018-05-11T07:59:18.884Z,20.03
2018-05-11T08:01:46.531Z,19.93
2018-05-11T08:04:15.145Z,17.37
2018-05-11T08:06:43.520Z,15.43
2018-05-11T08:09:11.126Z,17.70
2018-05-11T08:11:38.723Z,14.90
2018-05-11T08:14:06.360Z,15.87
2018-05-11T08:16:33.974Z,17.17
2018-05-11T08:19:02.321Z,20.03
2018-05-11T08:21:29.969Z,19.93
2018-05-11T08:23:57.534Z,19.57
2018-05-11T08:26:25.158Z,21.90
2018-05-11T08:28:52.763Z,20.90
2018-05-11T08:31:20.380Z,19.73
2018-05-11T08:33:47.988Z,19.63
2018-05-11T08:36:15.606Z,19.30
2018-05-11T08:38:43.169Z,21.00
2018-05-11T08:41:10.761Z,23.33
2018-05-11T08:43:38.363Z,22.07
2018-05-11T08:46:06.761Z,20.90
2018-05-11T08:48:34.379Z,21.80
2018-05-11T08:51:01.988Z,29.70
2018-05-11T08:53:29.574Z,24.13
2018-05-11T08:55:57.234Z,24.60
2018-05-11T08:58:24.813Z,24.00
2018-05-11T09:00:52.394Z,25.90
2018-05-11T09:03:20.859Z,29.50
2018-05-11T09:05:48.422Z,21.87
2018-05-11T09:08:16.094Z,25.03
2018-05-11T09:10:44.393Z,27.80
2018-05-11T09:13:12.003Z,24.30
2018-05-11T09:15:39.554Z,23.97
2018-05-11T09:18:07.183Z,24.70
2018-05-11T09:20:34.793Z,23.73
2018-05-11T09:23:02.434Z,27.50
2018-05-11T09:25:29.994Z,22.60
2018-05-11T09:27:57.557Z,25.30
2018-05-11T09:30:25.127Z,27.33
2018-05-11T09:32:52.731Z,26.87
2018-05-11T09:35:20.298Z,27.60
2018-05-11T09:37:47.880Z,29.43
2018-05-11T09:40:15.453Z,23.60
2018-05-11T09:42:42.997Z,25.90
2018-05-11T09:45:10.601Z,23.13
2018-05-11T09:47:38.171Z,22.53
2018-05-11T09:50:06.509Z,27.60
2018-05-11T09:52:34.078Z,26.63
2018-05-11T09:55:01.757Z,21.50
2018-05-11T09:57:29.305Z,26.57
2018-05-11T09:59:56.876Z,24.53
2018-05-11T10:02:24.482Z,29.00
2018-05-11T10:04:52.078Z,21.20
2018-05-11T10:07:19.711Z,24.30
2018-05-11T10:09:47.323Z,25.07
2018-05-11T10:12:15.668Z,25.97
2018-05-11T10:14:43.247Z,23.87
2018-05-11T10:17:10.877Z,25.20
2018-05-11T10:19:38.454Z,24.80
2018-05-11T10:22:06.064Z,23.20
2018-05-11T10:24:33.691Z,22.70
2018-05-11T10:27:01.257Z,21.20
2018-05-11T10:29:28.881Z,25.20
2018-05-11T10:31:56.486Z,21.00
2018-05-11T10:34:24.929Z,20.23
2018-05-11T10:37:17.437Z,23.97
2018-05-11T10:39:45.118Z,28.07
2018-05-11T10:42:14.393Z,20.23
2018-05-11T10:44:42.030Z,21.90
2018-05-11T10:47:10.398Z,23.50
2018-05-11T10:49:38.044Z,21.63
2018-05-11T10:52:05.620Z,26.10
2018-05-11T10:54:33.210Z,23.27
2018-05-11T10:57:00.775Z,24.20
2018-05-11T10:59:28.331Z,23.53
2018-05-11T11:01:56.689Z,21.20
2018-05-11T11:04:25.039Z,24.40
2018-05-11T11:06:52.604Z,18.50
2018-05-11T11:09:20.178Z,22.77
2018-05-11T11:14:49.400Z,20.37
2018-05-11T11:17:16.967Z,22.23
2018-05-11T11:19:45.294Z,20.33
2018-05-11T11:22:12.892Z,19.03
2018-05-11T11:24:40.447Z,23.83
2018-05-11T11:27:07.999Z,24.23
2018-05-11T11:29:35.567Z,20.20
2018-05-11T11:32:03.148Z,21.23
2018-05-11T11:34:31.519Z,20.87
2018-05-11T11:36:59.060Z,20.63
2018-05-11T11:39:27.405Z,20.47
2018-05-11T11:41:55.023Z,19.37
2018-05-11T11:44:23.377Z,19.10
2018-05-11T11:46:50.995Z,20.87
2018-05-11T11:49:18.608Z,22.00
2018-05-11T11:51:46.235Z,21.23
2018-05-11T11:54:13.849Z,20.60
2018-05-11T11:56:41.418Z,24.23
2018-05-11T11:59:20.649Z,20.37
2018-05-11T12:01:48.257Z,22.13
2018-05-11T12:04:15.831Z,19.03
2018-05-11T12:06:43.430Z,20.03
2018-05-11T12:09:10.985Z,19.27
2018-05-11T12:11:38.623Z,18.73
2018-05-11T12:14:06.273Z,17.60
2018-05-11T12:16:33.868Z,22.33
2018-05-11T12:19:01.498Z,19.23
2018-05-11T12:21:29.106Z,19.97
2018-05-11T12:23:56.680Z,20.77
2018-05-11T12:26:24.262Z,18.47
2018-05-11T12:28:51.821Z,22.10
2018-05-11T12:31:19.404Z,21.63
2018-05-11T12:33:47.798Z,21.50
2018-05-11T12:36:16.133Z,18.40
2018-05-11T12:38:43.735Z,19.57
2018-05-11T12:41:12.101Z,19.37
2018-05-11T12:43:39.675Z,16.70
2018-05-11T12:46:07.259Z,19.93
2018-05-11T12:48:34.813Z,17.97
2018-05-11T12:51:02.475Z,20.90
2018-05-11T12:53:35.016Z,17.60
2018-05-11T12:56:24.697Z,19.90
2018-05-11T12:59:03.037Z,15.90
2018-05-11T13:01:30.643Z,16.97
2018-05-11T13:03:58.224Z,17.73
2018-05-11T13:06:25.855Z,19.90
2018-05-11T13:09:11.950Z,17.60
2018-05-11T13:11:39.569Z,18.10
2018-05-11T13:14:30.240Z,20.20
2018-05-11T13:16:58.605Z,17.50
2018-05-11T13:22:44.596Z,18.93
2018-05-11T13:25:12.184Z,18.70
2018-05-11T13:27:39.826Z,19.43
2018-05-11T13:30:22.426Z,19.80
2018-05-11T13:32:50.012Z,18.30
2018-05-11T13:35:36.141Z,22.30
2018-05-11T13:38:04.471Z,15.97
2018-05-11T13:40:32.072Z,18.57
2018-05-11T13:43:00.387Z,15.90
2018-05-11T13:45:28.022Z,15.93
2018-05-11T13:47:55.632Z,17.30
2018-05-11T13:50:23.238Z,14.73
2018-05-11T13:52:51.611Z,21.37
2018-05-11T13:55:19.969Z,22.83
2018-05-11T13:57:47.582Z,15.80
2018-05-11T14:00:15.145Z,17.50
2018-05-11T14:02:42.717Z,15.30
2018-05-11T14:05:10.364Z,13.80
2018-05-11T14:07:37.933Z,17.00
2018-05-11T14:10:05.532Z,16.30
2018-05-11T14:12:33.889Z,16.53
2018-05-11T14:15:01.537Z,16.23
2018-05-11T14:17:29.126Z,15.47
2018-05-11T14:19:56.770Z,15.53
2018-05-11T14:22:24.366Z,19.17
2018-05-11T14:24:52.862Z,32.80
2018-05-11T14:27:20.474Z,25.93
2018-05-11T14:29:48.112Z,99.57
2018-05-11T14:32:15.746Z,38.93
2018-05-11T14:34:43.321Z,15.37
2018-05-11T14:37:10.924Z,19.27
2018-05-11T14:39:38.512Z,22.67
2018-05-11T14:42:06.941Z,19.97
2018-05-11T14:44:34.471Z,26.80
2018-05-11T14:47:02.088Z,20.30
2018-05-11T14:52:28.169Z,15.97
2018-05-11T14:54:55.759Z,34.47
2018-05-11T14:57:23.353Z,19.50
2018-05-11T14:59:50.990Z,18.90
2018-05-11T15:02:33.789Z,22.30
2018-05-11T15:05:01.404Z,20.40
2018-05-11T15:07:29.819Z,30.40
2018-05-11T15:09:57.469Z,34.27
2018-05-11T15:12:25.110Z,22.83
2018-05-11T15:14:53.467Z,13.80
2018-05-11T15:17:21.060Z,19.47
2018-05-11T15:19:48.619Z,17.33
2018-05-11T15:22:16.194Z,16.50
2018-05-11T15:24:43.816Z,15.77
2018-05-11T15:27:11.438Z,14.77
2018-05-11T15:29:39.098Z,14.53
2018-05-11T15:32:06.670Z,13.80
2018-05-11T15:34:34.284Z,16.23
2018-05-11T15:37:03.831Z,16.60
2018-05-11T15:39:31.511Z,16.93
2018-05-11T15:41:59.121Z,16.40
2018-05-11T15:44:26.746Z,16.30
2018-05-11T15:46:54.371Z,17.97
2018-05-11T15:49:21.974Z,15.10
2018-05-11T15:51:50.299Z,16.20
2018-05-11T15:54:17.883Z,18.20
2018-05-11T15:56:45.477Z,16.43
2018-05-11T15:59:13.813Z,15.40
2018-05-11T16:01:41.434Z,17.23
2018-05-11T16:04:09.001Z,18.63
2018-05-11T16:06:36.574Z,16.10
2018-05-11T16:09:04.182Z,17.70
2018-05-11T16:14:30.361Z,21.30
2018-05-11T16:20:02.035Z,16.70
2018-05-11T16:22:29.648Z,18.57
2018-05-11T16:24:57.220Z,16.10
2018-05-11T16:27:24.782Z,13.50
2018-05-11T16:29:52.437Z,18.23
2018-05-11T16:32:20.042Z,16.67
2018-05-11T16:34:47.694Z,23.00
2018-05-11T16:37:15.277Z,17.00
2018-05-11T16:39:42.820Z,13.73
2018-05-11T16:42:10.393Z,16.60
2018-05-11T16:44:37.963Z,15.00
2018-05-11T16:47:05.619Z,17.13
2018-05-11T16:49:33.234Z,17.77
2018-05-11T16:52:01.669Z,15.77
2018-05-11T16:54:29.316Z,20.70
2018-05-11T16:56:56.864Z,18.40
2018-05-11T16:59:24.433Z,18.87
2018-05-11T17:01:52.074Z,19.17
2018-05-11T17:04:19.640Z,20.47
2018-05-11T17:06:47.208Z,22.60
2018-05-11T17:09:14.831Z,18.93
2018-05-11T17:11:42.450Z,21.73
2018-05-11T17:14:10.023Z,19.50
2018-05-11T17:16:37.594Z,23.70
2018-05-11T17:19:05.173Z,19.40
2018-05-11T17:21:35.514Z,17.27
2018-05-11T17:26:55.933Z,18.27
2018-05-11T17:29:23.567Z,20.60
2018-05-11T17:31:51.165Z,22.63
2018-05-11T17:34:26.531Z,21.40
2018-05-11T17:36:54.078Z,26.23
2018-05-11T17:39:40.896Z,23.10
2018-05-11T17:42:08.449Z,19.23
2018-05-11T17:44:36.125Z,23.63
2018-05-11T17:47:03.775Z,19.70
2018-05-11T17:49:31.376Z,17.57
2018-05-11T17:51:59.051Z,16.40
2018-05-11T17:54:27.378Z,19.63
2018-05-11T17:56:55.008Z,19.30
2018-05-11T17:59:22.556Z,21.20
2018-05-11T18:01:50.978Z,19.40
2018-05-11T18:04:18.591Z,18.77
2018-05-11T18:07:01.438Z,19.43
2018-05-11T18:09:29.031Z,19.87
2018-05-11T18:11:56.648Z,18.97
2018-05-11T18:14:24.960Z,19.00
2018-05-11T18:19:58.448Z,17.93
2018-05-11T18:22:26.060Z,17.40
2018-05-11T18:24:53.636Z,20.70
2018-05-11T18:27:36.569Z,17.70
2018-05-11T18:30:04.237Z,19.20
2018-05-11T18:32:31.809Z,22.47
2018-05-11T18:35:23.907Z,21.07
2018-05-11T18:37:51.491Z,18.67
2018-05-11T18:40:24.545Z,20.93
2018-05-11T18:42:52.120Z,23.20
2018-05-11T18:45:20.495Z,18.90
2018-05-11T18:47:48.084Z,19.23
2018-05-11T18:50:21.613Z,18.13
2018-05-11T18:52:49.208Z,26.13
2018-05-11T18:55:21.756Z,19.20
2018-05-11T18:57:54.700Z,16.93
2018-05-11T19:00:22.319Z,13.00
2018-05-11T19:02:49.964Z,16.53
2018-05-11T19:05:17.608Z,18.83
2018-05-11T19:07:45.178Z,18.20
2018-05-11T19:10:12.751Z,16.50
2018-05-11T19:15:42.489Z,16.30
2018-05-11T19:18:10.088Z,17.70
2018-05-11T19:23:33.550Z,16.20
2018-05-11T19:28:55.033Z,24.40
2018-05-11T19:34:33.375Z,17.20
2018-05-11T19:37:00.933Z,17.63
2018-05-11T19:39:28.564Z,18.60
2018-05-11T19:41:56.142Z,15.53
2018-05-11T19:44:23.716Z,18.60
2018-05-11T19:46:51.342Z,17.40
2018-05-11T19:49:19.745Z,16.23
2018-05-11T19:51:47.353Z,17.37
2018-05-11T19:54:15.020Z,18.23
2018-05-11T19:59:41.120Z,23.43
2018-05-11T20:02:08.707Z,20.83
2018-05-11T20:04:36.309Z,19.23
2018-05-11T20:07:03.911Z,17.83
2018-05-11T20:09:31.527Z,19.10
2018-05-11T20:11:59.091Z,17.43
2018-05-11T20:14:26.722Z,20.87
2018-05-11T20:16:54.358Z,21.50
2018-05-11T20:19:21.924Z,21.70
2018-05-11T20:21:49.526Z,22.40
2018-05-11T20:24:17.090Z,23.80
2018-05-11T20:26:44.753Z,17.60
2018-05-11T20:29:13.150Z,21.23
2018-05-11T20:31:41.474Z,21.93
2018-05-11T20:34:09.097Z,19.10
2018-05-11T20:36:36.731Z,18.30
2018-05-11T20:39:04.392Z,29.40
2018-05-11T20:41:32.027Z,23.97
2018-05-11T20:43:59.643Z,23.47
2018-05-11T20:46:27.246Z,23.20
2018-05-11T20:48:54.866Z,25.03
2018-05-11T20:51:23.234Z,22.90
2018-05-11T20:53:50.882Z,22.00
2018-05-11T20:56:18.486Z,28.43
2018-05-11T20:58:46.118Z,24.53
2018-05-11T21:01:13.727Z,25.40
2018-05-11T21:03:41.327Z,21.60
2018-05-11T21:06:08.971Z,23.53
2018-05-11T21:08:36.551Z,25.10
2018-05-11T21:11:04.162Z,29.63
2018-05-11T21:13:31.755Z,23.27
2018-05-11T21:16:00.175Z,27.37
2018-05-11T21:18:27.725Z,26.47
2018-05-11T21:20:55.349Z,27.93
2018-05-11T21:23:23.716Z,19.07
2018-05-11T21:25:52.763Z,29.07
2018-05-11T21:28:20.330Z,24.30
2018-05-11T21:30:47.937Z,24.53
2018-05-11T21:33:16.339Z,28.30
2018-05-11T21:35:43.925Z,25.43
2018-05-11T21:38:11.558Z,23.90
2018-05-11T21:40:39.155Z,27.83
2018-05-11T21:43:06.756Z,30.30
2018-05-11T21:45:35.110Z,28.53
2018-05-11T21:48:02.714Z,27.83
2018-05-11T21:50:30.341Z,29.83
2018-05-11T21:52:57.934Z,34.30
2018-05-11T21:55:25.525Z,29.20
2018-05-11T21:57:53.173Z,31.67
2018-05-11T22:00:20.831Z,26.50
2018-05-11T22:02:48.435Z,33.23
2018-05-11T22:05:16.053Z,31.13
2018-05-11T22:07:43.640Z,27.00
2018-05-11T22:10:11.268Z,33.77
2018-05-11T22:12:38.895Z,30.40
2018-05-11T22:15:07.237Z,29.20
2018-05-11T22:17:34.814Z,28.80
2018-05-11T22:20:02.434Z,27.27
2018-05-11T22:22:29.995Z,33.77
2018-05-11T22:24:57.621Z,31.43
2018-05-11T22:27:25.993Z,29.87
2018-05-11T22:29:54.317Z,29.47
2018-05-11T22:32:21.946Z,30.67
2018-05-11T22:34:49.528Z,30.87
2018-05-11T22:37:17.101Z,34.70
2018-05-11T22:39:44.668Z,33.47
2018-05-11T22:42:12.289Z,36.07
2018-05-11T22:44:39.891Z,29.17
2018-05-11T22:47:07.536Z,37.20
2018-05-11T22:49:35.199Z,35.63
2018-05-11T22:52:02.718Z,36.77
2018-05-11T22:54:31.082Z,36.60
2018-05-11T22:56:58.655Z,34.80
2018-05-11T22:59:27.069Z,37.97
2018-05-11T23:01:54.662Z,43.37
2018-05-11T23:04:22.234Z,43.00
2018-05-11T23:06:49.823Z,40.33
2018-05-11T23:09:17.442Z,45.73
2018-05-11T23:11:45.054Z,44.10
2018-05-11T23:14:12.613Z,43.33
2018-05-11T23:16:40.172Z,44.20
2018-05-11T23:19:07.800Z,45.27
2018-05-11T23:21:36.186Z,40.67
2018-05-11T23:24:04.530Z,43.70
2018-05-11T23:26:32.172Z,43.57
2018-05-11T23:28:59.745Z,43.43
2018-05-11T23:31:27.415Z,44.77
2018-05-11T23:33:55.019Z,53.20
2018-05-11T23:36:23.427Z,52.83
2018-05-11T23:38:51.061Z,55.00
2018-05-11T23:41:18.667Z,50.53
2018-05-11T23:43:46.234Z,43.53
2018-05-11T23:46:13.811Z,41.60
2018-05-11T23:48:41.422Z,42.70
2018-05-11T23:51:09.001Z,43.47
2018-05-11T23:53:36.626Z,45.93
2018-05-11T23:56:04.220Z,43.17
2018-05-11T23:58:31.840Z,45.30
